Terminal Aerodrome Forecast
Issued by NWS Milwaukee/Sullivan, WI

Home | Current Version | Previous Version | Text Only | Print | Product List | Glossary On
Versions: 1 2 3 4 5 6 7 8 9 10 11 12 13 14 15 16 17 18 19 20 21 22 23 24 25 26 27 28 29
000
FTUS43 KMKX 290520
TAFMSN
TAF
KMSN 290520Z 2906/3006 25005KT P6SM SCT120
     FM291600 27011G20KT P6SM SCT050
     FM291900 27013G23KT P6SM VCSH BKN050
     FM292300 28011G21KT P6SM BKN050
     FM300200 27008KT P6SM SCT050=

USA.gov is the U.S. government's official web portal to all federal, state and local government web resources and services.